Terminal Aerodrome Forecast
Issued by NWS

Home | Current Version | Previous Version | Text Only | Print | Product List | Glossary On
Versions: 1 2 3 4 5 6 7 8 9 10 11 12 13 14 15 16 17 18
000
FTUS43 KAPX 071726
TAFTVC
TAF
KTVC 071726Z 0718/0818 34012G21KT P6SM SCT040
      TEMPO 0718/0719 BKN035
     FM080200 00000KT P6SM SKC
     FM081500 04005KT P6SM FEW040 SCT250=

USA.gov is the U.S. government's official web portal to all federal, state and local government web resources and services.